Pagina principală
METAR-TAF:

METAR-TAF

Aeroporturi :

Vavaʻu, Tonga

Latitudine: 18-35-07S, longitudine: 173-57-42W, elevație: 72 m

Observații meteo curente

Raportul a fost făcut în urmă cu 48 de minute, la 15:00 UTC
Vânt calm
Temperatură 22°C
Umiditate 94%
Presiune 1013 hPa
Vizibilitate de 10 km sau mai mult
Nori puțini la o înălțime de 1800 picior

METAR: NFTV 211500Z 00000KT 9999 FEW018 22/21 Q1013 RMKGRASS DEW

Ora: 04:48 (15:48 UTC)

Prognoză

Raportul a fost făcut în urmă cu 4 ore și 44 de minute, la 11:04 UTC
Prognoză valabilă de la 21 ora 12 UTC la 22 ora 12 UTC
Vânt 5 kt de la Est/Nord-est
Vizibilitate de 10 km sau mai mult
Nori puțini la o înălțime de 1800 picior

TAF: NFTV 211104Z 2112/2212 07005KT 9999 FEW018

Observații și prognoze meteo pentru peste 4.000 de aeroporturi (rapoarte METAR și TAF).

Stațiile disponibile sunt reprezentate pe hartă prin puncte galbene și roșii.

Țineți indicatorul mouse-ului pe punctul dorit pentru a vedea denumirea stației.

Apoi, faceți clic pentru a vedea observațiile și prognozele meteorologice.

Pentru a schimba harta: Pentru mărire, faceți clic pe butoanele verzi cu cruce neagră; pentru micșorare, pe butonul verde cu o liniuță; pentru hărți învecinate, pe săgețile verzi.


METAR-TAF: